• Join FlightAware (Why Join?)
  • Login
  • US Flag 
10:25PM EDT


 

Airport Tracker/Info


-or-


 

Live Flight TrackerFlight Track Log ✈ DAL1679 ✈ 04-May-2012 ✈ KSFO - KCVG

Flight Track Log - Related Links

Times and Time Zones

All times are in EDT time to prevent confusion due to time zone crossing. See the DAL1679 flight status page for this flight to view local times or setup timezone preferences in your user account.

Time Position Orientation Groundspeed Altitude Reporting Facility
EDT Latitude Longitude Course Direction KTS MPH feet Rate Location/Type
03:36PM 37.6667 -122.3667 63° Northeast 219 252 2,000  Level Northern Cal TRACON
03:37PM 37.7000 -122.2833 63° Northeast 261 300 4,700 2,700 Climbing Northern Cal TRACON
03:38PM 37.7333 -122.2000 64° Northeast 283 326 7,500 2,100 Climbing Northern Cal TRACON
03:40PM 37.8106 -121.9986 71° East 334 384 11,200 1,680 Climbing Oakland Center
03:41PM 37.8450 -121.8703 71° East 360 414 12,600 1,560 Climbing Oakland Center
03:42PM 37.8836 -121.7286 73° East 391 450 14,400 1,860 Climbing Oakland Center
03:43PM 37.9178 -121.5869 73° East 408 470 16,400 1,800 Climbing Oakland Center
03:44PM 37.9539 -121.4369 75° East 432 497 18,100 1,440 Climbing Oakland Center
03:45PM 37.9856 -121.2819 77° East 445 512 19,300 1,440 Climbing Oakland Center
03:46PM 38.0131 -121.1317 77° East 461 531 21,000 1,500 Climbing Oakland Center
03:47PM 38.0444 -120.9631 77° East 471 542 22,300 1,200 Climbing Oakland Center
03:48PM 38.0756 -120.7914 76° East 490 564 23,500 1,200 Climbing Oakland Center
03:49PM 38.1106 -120.6172 77° East 495 570 24,700 900 Climbing Oakland Center
03:50PM 38.1433 -120.4400 76° East 500 575 25,400 840 Climbing Oakland Center
03:51PM 38.1778 -120.2575 77° East 518 596 26,400 900 Climbing Oakland Center
03:52PM 38.2119 -120.0722 77° East 529 609 27,200 840 Climbing Oakland Center
03:53PM 38.2458 -119.8839 76° East 534 615 28,100 960 Climbing Oakland Center
03:54PM 38.2814 -119.6956 77° East 539 620 29,200 900 Climbing Oakland Center
03:55PM 38.3147 -119.5072 80° East 539 620 30,000 1,020 Climbing Oakland Center
03:56PM 38.3433 -119.3078 78° East 532 612 31,300 1,080 Climbing Oakland Center
03:57PM 38.3739 -119.1217 77° East 527 606 32,200 780 Climbing Oakland Center
03:58PM 38.4047 -118.9542 79° East 533 613 32,900 360 Climbing Oakland Center
03:59PM 38.4344 -118.7650 79° East 538 619 33,000  Climbing Oakland Center
04:00PM 38.4642 -118.5756 78° East 538 619 33,000  Level Oakland Center
04:01PM 38.4956 -118.3864 78° East 538 619 33,000  Level Oakland Center
04:02PM 38.5269 -118.1994 77° East 543 625 33,000  Level Oakland Center
04:03PM 38.5636 -117.9961 79° East 543 625 33,100 -60 Climbing Oakland Center
04:05PM 38.5983 -117.7667 79° East 529 609 32,900 -60 Descending Salt Lake Center
04:06PM 38.6269 -117.5817 79° East 528 608 33,000  Climbing Salt Lake Center
04:07PM 38.6619 -117.3561 79° East 532 612 33,000  Level Salt Lake Center
04:09PM 38.7192 -116.9786 79° East 535 616 33,000  Level Salt Lake Center
04:10PM 38.7475 -116.7917 79° East 534 615 33,000  Level Salt Lake Center
04:11PM 38.7758 -116.6047 80° East 533 613 33,000  Level Salt Lake Center
04:12PM 38.8025 -116.4164 79° East 534 615 33,000  Level Salt Lake Center
04:13PM 38.8300 -116.2292 80° East 533 613 33,000  Level Salt Lake Center
04:14PM 38.8561 -116.0417 80° East 533 613 33,000  Level Salt Lake Center
04:15PM 38.8875 -115.8169 80° East 533 613 33,000  Level Salt Lake Center
04:16PM 38.9139 -115.6286 80° East 535 616 33,000  Level Salt Lake Center
04:17PM 38.9392 -115.4414 80° East 533 613 33,000  Level Salt Lake Center
04:18PM 38.9664 -115.2511 80° East 535 616 33,000  Level Salt Lake Center
04:19PM 38.9917 -115.0611 80° East 534 615 33,000  Level Salt Lake Center
04:20PM 39.0167 -114.8694 80° East 535 616 33,000  Level Salt Lake Center
04:21PM 39.0422 -114.6786 80° East 534 615 33,000  Level Salt Lake Center
04:22PM 39.0672 -114.4867 81° East 535 616 33,000  Level Salt Lake Center
04:23PM 39.0911 -114.2972 81° East 531 611 33,000  Level Salt Lake Center
04:24PM 39.1147 -114.1067 81° East 530 610 33,000  Level Salt Lake Center
04:25PM 39.1386 -113.9156 81° East 532 612 33,000  Level Salt Lake Center
04:27PM 39.1619 -113.7242 81° East 532 612 33,000  Level Salt Lake Center
04:28PM 39.1892 -113.4956 81° East 530 610 33,000  Level Salt Lake Center
04:29PM 39.2114 -113.3047 81° East 530 610 33,000  Level Salt Lake Center
04:30PM 39.2339 -113.1142 81° East 528 608 33,000  Level Salt Lake Center
04:31PM 39.2558 -112.9233 82° East 529 609 33,000  Level Salt Lake Center
04:32PM 39.2772 -112.7333 81° East 528 608 33,000  Level Salt Lake Center
04:33PM 39.2983 -112.5625 69° East 526 605 33,000  Level Salt Lake Center
04:34PM 39.3606 -112.3494 64° Northeast 545 627 33,000  Level Salt Lake Center
04:35PM 39.4261 -112.1725 65° Northeast 544 626 33,000  Level Salt Lake Center
04:36PM 39.4906 -111.9964 65° Northeast 540 621 33,000  Level Salt Lake Center
04:37PM 39.5547 -111.8194 65° Northeast 540 621 33,000  Level Salt Lake Center
04:38PM 39.6192 -111.6408 65° Northeast 542 624 33,000  Level Salt Lake Center
04:39PM 39.6831 -111.4622 65° Northeast 542 624 33,000  Level Salt Lake Center
04:40PM 39.7472 -111.2844 65° Northeast 541 623 33,000  Level Salt Lake Center
04:41PM 39.8167 -111.0889 66° East 540 621 33,000  Level Salt Lake Center
04:42PM 39.8761 -110.9183 65° Northeast 540 621 33,000  Level Salt Lake Center
04:43PM 39.9456 -110.7192 66° East 541 623 33,000  Level Salt Lake Center
04:44PM 40.0050 -110.5478 66° East 541 623 33,000  Level Salt Lake Center
04:45PM 40.0742 -110.3483 66° East 540 621 33,000  Level Salt Lake Center
04:46PM 40.1333 -110.1761 72° East 541 623 33,000  Level Salt Lake Center
04:47PM 40.1778 -109.9989 74° East 534 615 33,000  Level Salt Lake Center
04:48PM 40.2244 -109.7897 74° East 534 615 33,000  Level Salt Lake Center
04:49PM 40.2647 -109.6100 74° East 536 617 33,000  Level Salt Lake Center
04:50PM 40.3100 -109.4000 74° East 536 617 33,000  Level Salt Lake Center
04:51PM 40.3489 -109.2203 74° East 534 615 33,000  Level Salt Lake Center
04:52PM 40.3936 -109.0111 74° East 533 613 33,000  Level Salt Lake Center
04:53PM 40.4342 -108.8208 74° East 531 611 33,000  Level Salt Lake Center
04:54PM 40.4722 -108.6417 75° East 533 613 33,000  Level Salt Lake Center
04:55PM 40.5158 -108.4325 75° East 534 615 33,000  Level Salt Lake Center
04:56PM 40.5525 -108.2536 75° East 533 613 33,000  Level Salt Lake Center
04:57PM 40.5894 -108.0731 75° East 526 605 33,000  Level Denver Center
04:58PM 40.6231 -107.9014 74° East 526 605 33,000  Level Denver Center
04:59PM 40.6628 -107.7189 76° East 526 605 33,000  Level Denver Center
05:00PM 40.7022 -107.5086 75° East 532 612 33,000  Level Denver Center
05:01PM 40.7392 -107.3231 76° East 532 612 33,000  Level Denver Center
05:02PM 40.7694 -107.1589 75° East 518 596 33,000  Level Denver Center
05:03PM 40.8081 -106.9672 77° East 518 596 33,000  Level Denver Center
05:04PM 40.8442 -106.7644 76° East 518 596 33,000  Level Denver Center
05:05PM 40.8800 -106.5778 76° East 524 603 33,000  Level Denver Center
05:06PM 40.9114 -106.4103 76° East 524 603 33,000  Level Denver Center
05:07PM 40.9506 -106.2039 76° East 524 603 33,000  Level Denver Center
05:08PM 40.9856 -106.0194 75° East 519 597 33,000  Level Denver Center
05:09PM 41.0242 -105.8294 78° East 524 603 33,000  Level Denver Center
05:10PM 41.0542 -105.6364 75° East 531 611 33,000  Level Denver Center
05:11PM 41.0883 -105.4678 77° East 524 603 33,000  Level Denver Center
05:12PM 41.1239 -105.2606 76° East 523 602 33,000  Level Denver Center
05:13PM 41.1592 -105.0669 77° East 528 608 33,000  Level Denver Center
05:14PM 41.1883 -104.9006 81° East 528 608 33,100  Climbing Denver Center
05:15PM 41.2108 -104.7097 86° East 523 602 33,000 -60 Descending Denver Center
05:16PM 41.2219 -104.4967 86° East 523 602 33,000  Level Denver Center
05:17PM 41.2311 -104.3086 86° East 518 596 33,100  Climbing Denver Center
05:18PM 41.2403 -104.1428 86° East 513 590 33,000 -60 Descending Denver Center
05:19PM 41.2506 -103.9408 87° East 507 583 33,000  Level Denver Center
05:20PM 41.2569 -103.7553 86° East 495 570 33,000  Level Denver Center
05:21PM 41.2672 -103.5753 87° East 500 575 33,000  Level Denver Center
05:22PM 41.2733 -103.4094 87° East 500 575 33,000  Level Denver Center
05:23PM 41.2803 -103.2072 86° East 500 575 33,000  Level Denver Center
05:24PM 41.2897 -103.0244 88° East 500 575 33,000  Level Denver Center
05:25PM 41.2950 -102.8583 87° East 500 575 33,000  Level Denver Center
05:26PM 41.3014 -102.6725 87° East 500 575 33,000  Level Denver Center
05:27PM 41.3092 -102.4675 88° East 500 575 33,000  Level Denver Center
05:28PM 41.3150 -102.2819 87° East 500 575 33,000  Level Denver Center
05:29PM 41.3214 -102.1156 87° East 500 575 33,100  Climbing Denver Center
05:30PM 41.3272 -101.9353 88° East 500 575 33,000 -60 Descending Denver Center
05:31PM 41.3317 -101.7358 87° East 493 567 33,000  Level Denver Center
05:32PM 41.3386 -101.5556 88° East 483 556 33,000  Level Denver Center
05:33PM 41.3419 -101.3892 88° East 483 556 33,000  Level Denver Center
05:34PM 41.3464 -101.2089 88° East 483 556 33,000  Level Denver Center
05:35PM 41.3517 -101.0092 88° East 488 562 33,000  Level Denver Center
05:36PM 41.3556 -100.8264 89° East 488 562 33,000  Level Denver Center
05:37PM 41.3589 -100.6433 89° East 488 562 33,000  Level Denver Center
05:38PM 41.3614 -100.4853 89° East 488 562 33,000  Level Denver Center
05:39PM 41.3642 -100.3050 88° East 476 548 33,000  Level Denver Center
05:40PM 41.3686 -100.1136 90° East 476 548 33,000  Level Denver Center
05:41PM 41.3689 -99.9308 88° East 482 555 33,000  Level Denver Center
05:42PM 41.3722 -99.7725 89° East 476 548 33,000  Level Denver Center
05:43PM 41.3742 -99.5922 90° East 481 554 33,000  Level Denver Center
05:45PM 41.3750 -99.2019 90° East 482 555 33,000  Level Minneapolis Center
05:46PM 41.3750 -99.0414 91° East 482 555 33,000  Level Minneapolis Center
05:47PM 41.3717 -98.8614 89° East 482 555 33,000  Level Minneapolis Center
05:48PM 41.3742 -98.6819 91° East 482 555 33,000  Level Minneapolis Center
05:49PM 41.3719 -98.5050 87° East 482 555 33,000  Level Minneapolis Center
05:50PM 41.3800 -98.3258 87° East 482 555 33,000 480 Level Minneapolis Center
05:51PM 41.3878 -98.1497 88° East 477 549 34,000 660 Climbing Minneapolis Center
05:52PM 41.3933 -97.9731 87° East 472 543 34,400 480 Climbing Minneapolis Center
05:53PM 41.4003 -97.8022 87° East 467 537 35,000 300 Climbing Minneapolis Center
05:54PM 41.4072 -97.6258 86° East 467 537 35,000  Level Minneapolis Center
05:55PM 41.4156 -97.4522 87° East 472 543 35,000  Level Minneapolis Center
05:56PM 41.4219 -97.2783 85° East 472 543 35,000  Level Minneapolis Center
05:57PM 41.4322 -97.1019 88° East 472 543 35,000  Level Minneapolis Center
05:58PM 41.4378 -96.9281 87° East 472 543 35,000  Level Minneapolis Center
05:59PM 41.4453 -96.7542 87° East 472 543 35,000  Level Minneapolis Center
06:00PM 41.4525 -96.5775 87° East 472 543 35,000  Level Minneapolis Center
06:01PM 41.4594 -96.4064 84° East 472 543 35,000  Level Minneapolis Center
06:02PM 41.4725 -96.2300 90° East 477 549 35,000  Level Minneapolis Center
06:03PM 41.4725 -96.0528 86° East 477 549 35,000  Level Minneapolis Center
06:04PM 41.4808 -95.8789 88° East 477 549 35,000  Level Minneapolis Center
06:05PM 41.4844 -95.7075 90° East 472 543 35,000  Level Minneapolis Center
06:06PM 41.4842 -95.5111 88° East 472 543 35,000  Level Minneapolis Center
06:07PM 41.4894 -95.3397 89° East 472 543 35,000  Level Minneapolis Center
06:08PM 41.4922 -95.1653 89° East 472 543 35,000  Level Minneapolis Center
06:09PM 41.4947 -94.9967 88° East 472 543 35,000  Level Minneapolis Center
06:10PM 41.4992 -94.8253 89° East 460 529 35,000  Level Minneapolis Center
06:11PM 41.5014 -94.6508 87° East 460 529 35,000  Level Minneapolis Center
06:12PM 41.5072 -94.4822 88° East 460 529 35,000  Level Minneapolis Center
06:13PM 41.5108 -94.3078 90° East 460 529 35,000  Level Minneapolis Center
06:14PM 41.5100 -94.1389 88° East 460 529 35,000  Level Minneapolis Center
06:17PM 41.5169 -93.7736 89° East 460 529 35,000  Level Chicago Center
06:18PM 41.5192 -93.6019 89° East 460 529 35,000  Level Chicago Center
06:19PM 41.5214 -93.4300 89° East 460 529 35,000  Level Chicago Center
06:20PM 41.5231 -93.2581 90° East 460 529 35,000  Level Chicago Center
06:21PM 41.5225 -93.0889 88° East 459 528 35,000  Level Chicago Center
06:22PM 41.5261 -92.9086 92° East 465 535 35,000  Level Chicago Center
06:23PM 41.5211 -92.7336 90° East 470 541 35,000  Level Chicago Center
06:24PM 41.5217 -92.5672 91° East 470 541 35,000  Level Chicago Center
06:25PM 41.5203 -92.3869 90° East 465 535 35,000  Level Chicago Center
06:26PM 41.5206 -92.2150 89° East 465 535 35,000  Level Chicago Center
06:27PM 41.5225 -92.0458 91° East 460 529 35,000  Level Chicago Center
06:28PM 41.5208 -91.8486 91° East 467 537 35,000  Level Chicago Center
06:29PM 41.5181 -91.6822 89° East 461 531 35,000  Level Chicago Center
06:30PM 41.5194 -91.5047 88° East 461 531 35,000  Level Chicago Center
06:31PM 41.5247 -91.3275 89° East 466 536 35,000  Level Chicago Center
06:32PM 41.5275 -91.1500 89° East 466 536 35,000  Level Chicago Center
06:33PM 41.5303 -90.9725 88° East 478 550 35,000  Level Chicago Center
06:34PM 41.5347 -90.7922 88° East 478 550 35,000  Level Chicago Center
06:35PM 41.5389 -90.6094 89° East 478 550 35,000  Level Chicago Center
06:36PM 41.5408 -90.4292 88° East 478 550 35,000  Level Chicago Center
06:37PM 41.5444 -90.2489 89° East 478 550 35,000  Level Chicago Center
06:38PM 41.5458 -90.0711 89° East 478 550 35,000 -180 Level Chicago Center
06:39PM 41.5489 -89.8881 91° East 478 550 34,700 -780 Descending Chicago Center
06:40PM 41.5475 -89.7078 89° East 478 550 33,500 -900 Descending Chicago Center
06:41PM 41.5500 -89.5497 91° East 478 550 33,000 -300 Descending Chicago Center
06:42PM 41.5481 -89.3664 90° East 478 550 33,000  Level Chicago Center
06:43PM 41.5478 -89.1889 90° East 478 550 33,000  Level Chicago Center
06:44PM 41.5475 -89.0114 90° East 478 550 33,000  Level Chicago Center
06:45PM 41.5467 -88.8311 90° East 478 550 33,000 -60 Level Chicago Center
06:46PM 41.5458 -88.6536 118° Southeast 478 550 32,900 -300 Descending Chicago Center
06:47PM 41.4864 -88.5017 131° Southeast 478 550 32,400 -780 Descending Chicago Center
06:48PM 41.3978 -88.3644 131° Southeast 484 557 31,400 -1,200 Descending Chicago Center
06:49PM 41.3111 -88.2303 131° Southeast 479 551 30,000 -1,200 Descending Chicago Center
06:50PM 41.2178 -88.0856 129° Southeast 479 551 29,000 -540 Descending Chicago Center
06:51PM 41.1372 -87.9550 130° Southeast 473 544 29,000  Level Chicago Center
06:52PM 41.0519 -87.8217 131° Southeast 473 544 29,000  Level Chicago Center
06:53PM 40.9689 -87.6944 131° Southeast 473 544 29,000 -360 Level Chicago Center
06:54PM 40.8814 -87.5622 130° Southeast 473 544 28,300 -900 Descending Chicago Center
06:55PM 40.7981 -87.4328 134° Southeast 473 544 27,300 -1,020 Descending Chicago Center
06:56PM 40.7083 -87.3119 142° Southeast 473 544 26,300 -900 Descending Chicago Center
06:57PM 40.6064 -87.2086 144° Southeast 462 532 25,500 -900 Descending Chicago Center
06:58PM 40.5003 -87.1081 150° Southeast 467 537 24,600 -960 Descending Chicago Center
06:59PM 40.3186 -86.9683 150° Southeast 498 573 23,000 -660 Descending Indianapolis Center
07:00PM 40.2086 -86.8842 150° Southeast 469 540 23,000  Level Indianapolis Center
07:01PM 40.0983 -86.8000 142° Southeast 464 534 23,000  Level Indianapolis Center
07:02PM 39.9989 -86.6981 120° Southeast 459 528 23,000  Level Indianapolis Center
07:03PM 39.9417 -86.5681 116° Southeast 448 516 23,000 -420 Level Indianapolis Center
07:04PM 39.8667 -86.3667 123° Southeast 438 504 22,100 -900 Descending Indianapolis TRACON
07:06PM 39.8000 -86.2333 116° Southeast 422 486 21,000 -1,500 Descending Indianapolis TRACON
07:07PM 39.7500 -86.1000 120° Southeast 420 483 19,000 -2,040 Descending Indianapolis TRACON
07:07PM 39.7086 -86.0075 118° Southeast 421 484 17,500 -2,280 Descending Indianapolis Center
07:08PM 39.6569 -85.8817 116° Southeast 404 465 15,100 -2,100 Descending Indianapolis Center
07:09PM 39.6075 -85.7506 114° Southeast 404 465 13,400 -1,500 Descending Indianapolis Center
07:10PM 39.5639 -85.6228 114° Southeast 391 450 12,200 -1,200 Descending Indianapolis Center
07:11PM 39.5200 -85.4978 124° Southeast 386 444 11,100 -720 Descending Indianapolis Center
07:12PM 39.4575 -85.3778 115° Southeast 380 437 10,800 -480 Descending Indianapolis Center
07:13PM 39.4194 -85.2717 104° East 383 441 10,200 -780 Descending Indianapolis Center
07:14PM 39.3981 -85.1586 104° East 354 407 9,300 -1,320 Descending Indianapolis Center
07:15PM 39.3767 -85.0478 102° East 324 373 7,600 -1,500 Descending Indianapolis Center
07:16PM 39.3592 -84.9428 105° East 308 354 6,300 -1,320 Descending Indianapolis Center
07:17PM 39.3333 -84.8167 123° Southeast 286 329 5,000 -900 Descending Cincinnati TRACON
07:18PM 39.3000 -84.7500 134° Southeast 245 282 4,600 -840 Descending Cincinnati TRACON
07:19PM 39.2500 -84.6833 153° Southeast 245 282 3,400 -780 Descending Cincinnati TRACON
07:20PM 39.2000 -84.6500 180° South 217 250 3,000 -480 Descending Cincinnati TRACON
07:21PM 39.1333 -84.6500 180° South 192 221 2,400 -660 Descending Cincinnati TRACON
07:22PM 39.1000 -84.6500 180° South 152 175 1,800 -720 Descending Cincinnati TRACON
07:23PM 39.0667 -84.6500 180° South 139 160 1,100 -720 Descending Cincinnati TRACON